sensor_id;sensor_type;location;lat;lon;timestamp;P1;durP1;ratioP1;P2;durP2;ratioP2
41799;SDS011;27468;47.460;19.034;2023-04-26T00:01:24;2.45;;;2.22;;
41799;SDS011;27468;47.460;19.034;2023-04-26T00:03:51;3.72;;;1.83;;
41799;SDS011;27468;47.460;19.034;2023-04-26T00:06:17;3.65;;;2.53;;
41799;SDS011;27468;47.460;19.034;2023-04-26T00:08:42;2.92;;;2.50;;
41799;SDS011;27468;47.460;19.034;2023-04-26T00:11:08;3.78;;;2.17;;
41799;SDS011;27468;47.460;19.034;2023-04-26T00:13:33;3.00;;;2.03;;
41799;SDS011;27468;47.460;19.034;2023-04-26T00:15:59;2.83;;;1.83;;
41799;SDS011;27468;47.460;19.034;2023-04-26T00:18:24;3.63;;;2.20;;
41799;SDS011;27468;47.460;19.034;2023-04-26T00:20:49;2.90;;;2.17;;
41799;SDS011;27468;47.460;19.034;2023-04-26T00:23:15;3.50;;;2.10;;
41799;SDS011;27468;47.460;19.034;2023-04-26T00:25:41;3.00;;;2.35;;
41799;SDS011;27468;47.460;19.034;2023-04-26T00:28:06;3.85;;;2.17;;
41799;SDS011;27468;47.460;19.034;2023-04-26T00:30:33;3.40;;;2.30;;
41799;SDS011;27468;47.460;19.034;2023-04-26T00:33:01;3.25;;;2.05;;
41799;SDS011;27468;47.460;19.034;2023-04-26T00:35:27;4.65;;;2.72;;
41799;SDS011;27468;47.460;19.034;2023-04-26T00:37:52;3.33;;;1.98;;
41799;SDS011;27468;47.460;19.034;2023-04-26T00:40:18;2.35;;;1.58;;
41799;SDS011;27468;47.460;19.034;2023-04-26T00:42:44;2.92;;;1.80;;
41799;SDS011;27468;47.460;19.034;2023-04-26T00:45:10;2.95;;;1.77;;
41799;SDS011;27468;47.460;19.034;2023-04-26T00:47:35;2.70;;;2.00;;
41799;SDS011;27468;47.460;19.034;2023-04-26T00:50:01;2.53;;;2.17;;
41799;SDS011;27468;47.460;19.034;2023-04-26T00:52:27;3.90;;;2.45;;
41799;SDS011;27468;47.460;19.034;2023-04-26T00:54:53;1.60;;;1.50;;
41799;SDS011;27468;47.460;19.034;2023-04-26T00:57:20;4.90;;;2.15;;
41799;SDS011;27468;47.460;19.034;2023-04-26T00:59:46;3.30;;;2.22;;
41799;SDS011;27468;47.460;19.034;2023-04-26T01:02:11;3.65;;;2.13;;
41799;SDS011;27468;47.460;19.034;2023-04-26T01:04:37;3.10;;;1.70;;
41799;SDS011;27468;47.460;19.034;2023-04-26T01:07:06;2.13;;;1.75;;
41799;SDS011;27468;47.460;19.034;2023-04-26T01:09:31;4.13;;;2.58;;
41799;SDS011;27468;47.460;19.034;2023-04-26T01:11:57;1.88;;;1.50;;
41799;SDS011;27468;47.460;19.034;2023-04-26T01:14:24;2.80;;;1.95;;
41799;SDS011;27468;47.460;19.034;2023-04-26T01:16:51;2.03;;;1.33;;
41799;SDS011;27468;47.460;19.034;2023-04-26T01:19:16;4.28;;;2.40;;
41799;SDS011;27468;47.460;19.034;2023-04-26T01:21:42;2.75;;;2.10;;
41799;SDS011;27468;47.460;19.034;2023-04-26T01:24:11;2.20;;;1.80;;
41799;SDS011;27468;47.460;19.034;2023-04-26T01:26:38;3.45;;;2.35;;
41799;SDS011;27468;47.460;19.034;2023-04-26T01:29:16;4.78;;;2.35;;
41799;SDS011;27468;47.460;19.034;2023-04-26T01:31:42;4.20;;;2.20;;
41799;SDS011;27468;47.460;19.034;2023-04-26T01:34:08;4.07;;;2.40;;
41799;SDS011;27468;47.460;19.034;2023-04-26T01:36:33;2.95;;;2.03;;
41799;SDS011;27468;47.460;19.034;2023-04-26T01:38:58;4.07;;;2.47;;
41799;SDS011;27468;47.460;19.034;2023-04-26T01:41:24;2.15;;;1.77;;
41799;SDS011;27468;47.460;19.034;2023-04-26T01:43:49;4.43;;;2.67;;
41799;SDS011;27468;47.460;19.034;2023-04-26T01:46:15;3.53;;;2.58;;
41799;SDS011;27468;47.460;19.034;2023-04-26T01:48:40;2.50;;;1.75;;
41799;SDS011;27468;47.460;19.034;2023-04-26T01:51:06;3.67;;;2.20;;
41799;SDS011;27468;47.460;19.034;2023-04-26T01:53:31;2.55;;;2.30;;
41799;SDS011;27468;47.460;19.034;2023-04-26T01:56:00;2.88;;;1.85;;
41799;SDS011;27468;47.460;19.034;2023-04-26T01:58:30;2.78;;;2.10;;
41799;SDS011;27468;47.460;19.034;2023-04-26T02:00:55;3.80;;;2.20;;
41799;SDS011;27468;47.460;19.034;2023-04-26T02:03:22;2.17;;;1.85;;
41799;SDS011;27468;47.460;19.034;2023-04-26T02:05:47;3.42;;;2.42;;
41799;SDS011;27468;47.460;19.034;2023-04-26T02:08:12;2.67;;;2.20;;
41799;SDS011;27468;47.460;19.034;2023-04-26T02:10:38;2.95;;;1.85;;
41799;SDS011;27468;47.460;19.034;2023-04-26T02:13:05;3.63;;;2.17;;
41799;SDS011;27468;47.460;19.034;2023-04-26T02:15:32;3.47;;;2.35;;
41799;SDS011;27468;47.460;19.034;2023-04-26T02:17:58;1.60;;;1.02;;
41799;SDS011;27468;47.460;19.034;2023-04-26T02:20:23;2.53;;;1.90;;
41799;SDS011;27468;47.460;19.034;2023-04-26T02:22:49;2.85;;;1.73;;
41799;SDS011;27468;47.460;19.034;2023-04-26T02:25:14;3.72;;;1.83;;
41799;SDS011;27468;47.460;19.034;2023-04-26T02:27:39;3.60;;;2.35;;
41799;SDS011;27468;47.460;19.034;2023-04-26T02:30:06;2.83;;;2.00;;
41799;SDS011;27468;47.460;19.034;2023-04-26T02:32:32;3.65;;;1.92;;
41799;SDS011;27468;47.460;19.034;2023-04-26T02:34:57;2.55;;;1.77;;
41799;SDS011;27468;47.460;19.034;2023-04-26T02:37:23;3.92;;;2.78;;
41799;SDS011;27468;47.460;19.034;2023-04-26T02:39:48;2.72;;;1.80;;
41799;SDS011;27468;47.460;19.034;2023-04-26T02:42:15;5.93;;;2.30;;
41799;SDS011;27468;47.460;19.034;2023-04-26T02:44:40;2.80;;;2.20;;
41799;SDS011;27468;47.460;19.034;2023-04-26T02:47:06;4.15;;;1.92;;
41799;SDS011;27468;47.460;19.034;2023-04-26T02:49:32;4.10;;;1.73;;
41799;SDS011;27468;47.460;19.034;2023-04-26T02:51:58;3.15;;;1.80;;
41799;SDS011;27468;47.460;19.034;2023-04-26T02:54:23;1.35;;;1.25;;
41799;SDS011;27468;47.460;19.034;2023-04-26T02:56:48;2.42;;;1.83;;
41799;SDS011;27468;47.460;19.034;2023-04-26T02:59:14;2.22;;;1.38;;
41799;SDS011;27468;47.460;19.034;2023-04-26T03:01:39;1.73;;;1.10;;
41799;SDS011;27468;47.460;19.034;2023-04-26T03:04:05;3.72;;;1.77;;
41799;SDS011;27468;47.460;19.034;2023-04-26T03:06:31;4.60;;;2.47;;
41799;SDS011;27468;47.460;19.034;2023-04-26T03:08:57;2.35;;;1.48;;
41799;SDS011;27468;47.460;19.034;2023-04-26T03:11:22;2.70;;;1.80;;
41799;SDS011;27468;47.460;19.034;2023-04-26T03:13:47;3.20;;;1.92;;
41799;SDS011;27468;47.460;19.034;2023-04-26T03:16:13;3.90;;;1.90;;
41799;SDS011;27468;47.460;19.034;2023-04-26T03:18:38;2.60;;;1.55;;
41799;SDS011;27468;47.460;19.034;2023-04-26T03:21:04;3.05;;;1.40;;
41799;SDS011;27468;47.460;19.034;2023-04-26T03:23:30;3.65;;;1.80;;
41799;SDS011;27468;47.460;19.034;2023-04-26T03:25:55;2.35;;;1.75;;
41799;SDS011;27468;47.460;19.034;2023-04-26T03:28:20;2.08;;;1.40;;
41799;SDS011;27468;47.460;19.034;2023-04-26T03:30:46;8.30;;;1.67;;
41799;SDS011;27468;47.460;19.034;2023-04-26T03:33:14;2.00;;;1.50;;
41799;SDS011;27468;47.460;19.034;2023-04-26T03:35:39;2.22;;;1.45;;
41799;SDS011;27468;47.460;19.034;2023-04-26T03:38:05;2.92;;;1.60;;
41799;SDS011;27468;47.460;19.034;2023-04-26T03:40:30;2.50;;;1.75;;
41799;SDS011;27468;47.460;19.034;2023-04-26T03:42:56;2.40;;;1.45;;
41799;SDS011;27468;47.460;19.034;2023-04-26T03:45:21;2.53;;;1.20;;
41799;SDS011;27468;47.460;19.034;2023-04-26T03:47:47;1.90;;;1.60;;
41799;SDS011;27468;47.460;19.034;2023-04-26T03:50:12;1.85;;;1.20;;
41799;SDS011;27468;47.460;19.034;2023-04-26T03:52:37;2.78;;;1.88;;
41799;SDS011;27468;47.460;19.034;2023-04-26T03:55:03;4.10;;;2.13;;
41799;SDS011;27468;47.460;19.034;2023-04-26T03:57:28;1.90;;;1.33;;
41799;SDS011;27468;47.460;19.034;2023-04-26T03:59:54;3.03;;;1.35;;
41799;SDS011;27468;47.460;19.034;2023-04-26T04:02:20;2.78;;;1.50;;
41799;SDS011;27468;47.460;19.034;2023-04-26T04:04:45;3.55;;;1.98;;
41799;SDS011;27468;47.460;19.034;2023-04-26T04:07:11;1.92;;;1.13;;
41799;SDS011;27468;47.460;19.034;2023-04-26T04:09:36;2.95;;;1.52;;
41799;SDS011;27468;47.460;19.034;2023-04-26T04:12:02;3.63;;;1.52;;
41799;SDS011;27468;47.460;19.034;2023-04-26T04:14:27;3.63;;;1.70;;
41799;SDS011;27468;47.460;19.034;2023-04-26T04:16:53;2.35;;;1.50;;
41799;SDS011;27468;47.460;19.034;2023-04-26T04:19:18;3.22;;;1.65;;
41799;SDS011;27468;47.460;19.034;2023-04-26T04:21:44;2.08;;;1.38;;
41799;SDS011;27468;47.460;19.034;2023-04-26T04:24:09;2.47;;;1.17;;
41799;SDS011;27468;47.460;19.034;2023-04-26T04:26:35;1.77;;;1.23;;
41799;SDS011;27468;47.460;19.034;2023-04-26T04:29:01;2.08;;;1.40;;
41799;SDS011;27468;47.460;19.034;2023-04-26T04:31:33;2.25;;;1.40;;
41799;SDS011;27468;47.460;19.034;2023-04-26T04:33:59;1.85;;;1.00;;
41799;SDS011;27468;47.460;19.034;2023-04-26T04:36:25;2.05;;;1.58;;
41799;SDS011;27468;47.460;19.034;2023-04-26T04:38:50;1.70;;;1.27;;
41799;SDS011;27468;47.460;19.034;2023-04-26T04:41:17;3.00;;;1.20;;
41799;SDS011;27468;47.460;19.034;2023-04-26T04:43:44;1.73;;;1.23;;
41799;SDS011;27468;47.460;19.034;2023-04-26T04:46:10;2.60;;;1.60;;
41799;SDS011;27468;47.460;19.034;2023-04-26T04:48:35;3.05;;;1.70;;
41799;SDS011;27468;47.460;19.034;2023-04-26T04:51:02;3.75;;;1.73;;
41799;SDS011;27468;47.460;19.034;2023-04-26T04:53:28;2.42;;;1.40;;
41799;SDS011;27468;47.460;19.034;2023-04-26T04:55:54;3.03;;;1.88;;
41799;SDS011;27468;47.460;19.034;2023-04-26T04:58:20;2.97;;;1.75;;
41799;SDS011;27468;47.460;19.034;2023-04-26T05:00:46;4.13;;;1.55;;
41799;SDS011;27468;47.460;19.034;2023-04-26T05:03:12;3.58;;;1.80;;
41799;SDS011;27468;47.460;19.034;2023-04-26T05:05:39;4.47;;;1.98;;
41799;SDS011;27468;47.460;19.034;2023-04-26T05:08:04;5.18;;;2.13;;
41799;SDS011;27468;47.460;19.034;2023-04-26T05:10:33;3.28;;;2.05;;
41799;SDS011;27468;47.460;19.034;2023-04-26T05:12:59;2.60;;;1.85;;
41799;SDS011;27468;47.460;19.034;2023-04-26T05:15:25;3.10;;;1.63;;
41799;SDS011;27468;47.460;19.034;2023-04-26T05:17:50;3.30;;;1.50;;
41799;SDS011;27468;47.460;19.034;2023-04-26T05:20:16;4.30;;;2.13;;
41799;SDS011;27468;47.460;19.034;2023-04-26T05:22:41;3.97;;;1.65;;
41799;SDS011;27468;47.460;19.034;2023-04-26T05:25:07;2.22;;;1.70;;
41799;SDS011;27468;47.460;19.034;2023-04-26T05:27:34;2.67;;;1.80;;
41799;SDS011;27468;47.460;19.034;2023-04-26T05:30:01;3.85;;;1.70;;
41799;SDS011;27468;47.460;19.034;2023-04-26T05:32:27;3.72;;;1.80;;
41799;SDS011;27468;47.460;19.034;2023-04-26T05:34:52;4.38;;;1.38;;
41799;SDS011;27468;47.460;19.034;2023-04-26T05:37:18;1.98;;;1.27;;
41799;SDS011;27468;47.460;19.034;2023-04-26T05:39:43;2.38;;;1.83;;
41799;SDS011;27468;47.460;19.034;2023-04-26T05:42:08;3.55;;;1.60;;
41799;SDS011;27468;47.460;19.034;2023-04-26T05:44:34;2.92;;;1.58;;
41799;SDS011;27468;47.460;19.034;2023-04-26T05:47:00;2.88;;;1.50;;
41799;SDS011;27468;47.460;19.034;2023-04-26T05:49:25;1.88;;;1.10;;
41799;SDS011;27468;47.460;19.034;2023-04-26T05:51:51;3.42;;;1.60;;
41799;SDS011;27468;47.460;19.034;2023-04-26T05:54:16;3.10;;;1.60;;
41799;SDS011;27468;47.460;19.034;2023-04-26T05:56:42;3.60;;;1.33;;
41799;SDS011;27468;47.460;19.034;2023-04-26T05:59:07;3.92;;;1.70;;
41799;SDS011;27468;47.460;19.034;2023-04-26T06:01:33;6.43;;;1.92;;
41799;SDS011;27468;47.460;19.034;2023-04-26T06:03:58;3.03;;;1.50;;
41799;SDS011;27468;47.460;19.034;2023-04-26T06:06:23;2.72;;;1.40;;
41799;SDS011;27468;47.460;19.034;2023-04-26T06:08:50;2.58;;;1.60;;
41799;SDS011;27468;47.460;19.034;2023-04-26T06:11:15;2.70;;;1.10;;
41799;SDS011;27468;47.460;19.034;2023-04-26T06:13:40;2.45;;;1.40;;
41799;SDS011;27468;47.460;19.034;2023-04-26T06:16:06;3.28;;;1.92;;
41799;SDS011;27468;47.460;19.034;2023-04-26T06:18:32;3.42;;;2.03;;
41799;SDS011;27468;47.460;19.034;2023-04-26T06:20:57;2.22;;;1.00;;
41799;SDS011;27468;47.460;19.034;2023-04-26T06:23:22;2.13;;;1.27;;
41799;SDS011;27468;47.460;19.034;2023-04-26T06:25:48;2.53;;;0.82;;
41799;SDS011;27468;47.460;19.034;2023-04-26T06:28:13;3.88;;;1.90;;
41799;SDS011;27468;47.460;19.034;2023-04-26T06:30:39;4.30;;;1.40;;
41799;SDS011;27468;47.460;19.034;2023-04-26T06:33:04;3.30;;;1.13;;
41799;SDS011;27468;47.460;19.034;2023-04-26T06:35:29;2.97;;;2.00;;
41799;SDS011;27468;47.460;19.034;2023-04-26T06:37:55;2.20;;;1.23;;
41799;SDS011;27468;47.460;19.034;2023-04-26T06:40:21;2.97;;;1.60;;
41799;SDS011;27468;47.460;19.034;2023-04-26T06:42:46;1.60;;;1.27;;
41799;SDS011;27468;47.460;19.034;2023-04-26T06:45:12;2.13;;;1.40;;
41799;SDS011;27468;47.460;19.034;2023-04-26T06:47:38;4.00;;;1.45;;
41799;SDS011;27468;47.460;19.034;2023-04-26T06:50:03;2.10;;;1.45;;
41799;SDS011;27468;47.460;19.034;2023-04-26T06:52:29;1.98;;;1.20;;
41799;SDS011;27468;47.460;19.034;2023-04-26T06:54:55;3.53;;;1.40;;
41799;SDS011;27468;47.460;19.034;2023-04-26T06:57:20;3.05;;;1.30;;
41799;SDS011;27468;47.460;19.034;2023-04-26T06:59:46;2.05;;;1.20;;
41799;SDS011;27468;47.460;19.034;2023-04-26T07:02:11;3.05;;;1.73;;
41799;SDS011;27468;47.460;19.034;2023-04-26T07:04:37;2.70;;;1.65;;
41799;SDS011;27468;47.460;19.034;2023-04-26T07:07:02;5.85;;;1.45;;
41799;SDS011;27468;47.460;19.034;2023-04-26T07:09:28;2.92;;;1.45;;
41799;SDS011;27468;47.460;19.034;2023-04-26T07:11:53;2.05;;;1.48;;
41799;SDS011;27468;47.460;19.034;2023-04-26T07:14:19;1.75;;;1.13;;
41799;SDS011;27468;47.460;19.034;2023-04-26T07:16:44;1.80;;;1.00;;
41799;SDS011;27468;47.460;19.034;2023-04-26T07:19:10;3.97;;;1.33;;
41799;SDS011;27468;47.460;19.034;2023-04-26T07:21:35;2.30;;;1.40;;
41799;SDS011;27468;47.460;19.034;2023-04-26T07:24:01;4.18;;;1.48;;
41799;SDS011;27468;47.460;19.034;2023-04-26T07:26:27;1.83;;;1.30;;
41799;SDS011;27468;47.460;19.034;2023-04-26T07:28:52;3.35;;;1.27;;
41799;SDS011;27468;47.460;19.034;2023-04-26T07:31:18;1.13;;;0.90;;
41799;SDS011;27468;47.460;19.034;2023-04-26T07:33:44;2.33;;;1.10;;
41799;SDS011;27468;47.460;19.034;2023-04-26T07:36:09;1.60;;;0.90;;
41799;SDS011;27468;47.460;19.034;2023-04-26T07:38:35;2.50;;;1.25;;
41799;SDS011;27468;47.460;19.034;2023-04-26T07:41:00;2.50;;;1.27;;
41799;SDS011;27468;47.460;19.034;2023-04-26T07:43:26;2.15;;;1.25;;
41799;SDS011;27468;47.460;19.034;2023-04-26T07:45:52;2.30;;;1.13;;
41799;SDS011;27468;47.460;19.034;2023-04-26T07:48:17;2.65;;;0.90;;
41799;SDS011;27468;47.460;19.034;2023-04-26T07:50:43;4.07;;;0.88;;
41799;SDS011;27468;47.460;19.034;2023-04-26T07:53:09;1.00;;;0.90;;
41799;SDS011;27468;47.460;19.034;2023-04-26T07:55:34;1.77;;;0.90;;
41799;SDS011;27468;47.460;19.034;2023-04-26T07:58:01;2.13;;;1.40;;
41799;SDS011;27468;47.460;19.034;2023-04-26T08:00:27;1.55;;;0.93;;
41799;SDS011;27468;47.460;19.034;2023-04-26T08:02:53;2.28;;;1.10;;
41799;SDS011;27468;47.460;19.034;2023-04-26T08:05:18;4.50;;;1.10;;
41799;SDS011;27468;47.460;19.034;2023-04-26T08:07:44;1.25;;;0.80;;
41799;SDS011;27468;47.460;19.034;2023-04-26T08:10:09;2.78;;;1.00;;
41799;SDS011;27468;47.460;19.034;2023-04-26T08:12:35;4.32;;;1.20;;
41799;SDS011;27468;47.460;19.034;2023-04-26T08:15:02;2.83;;;1.33;;
41799;SDS011;27468;47.460;19.034;2023-04-26T08:17:29;1.77;;;1.10;;
41799;SDS011;27468;47.460;19.034;2023-04-26T08:19:56;2.05;;;1.00;;
41799;SDS011;27468;47.460;19.034;2023-04-26T08:22:22;3.80;;;1.13;;
41799;SDS011;27468;47.460;19.034;2023-04-26T08:24:48;1.50;;;1.00;;
41799;SDS011;27468;47.460;19.034;2023-04-26T08:27:15;1.23;;;0.55;;
41799;SDS011;27468;47.460;19.034;2023-04-26T08:29:40;3.50;;;1.42;;
41799;SDS011;27468;47.460;19.034;2023-04-26T08:32:06;1.23;;;1.02;;
41799;SDS011;27468;47.460;19.034;2023-04-26T08:34:32;4.78;;;1.58;;
41799;SDS011;27468;47.460;19.034;2023-04-26T08:36:57;3.38;;;1.02;;
41799;SDS011;27468;47.460;19.034;2023-04-26T08:39:23;4.78;;;1.13;;
41799;SDS011;27468;47.460;19.034;2023-04-26T08:41:49;2.65;;;1.25;;
41799;SDS011;27468;47.460;19.034;2023-04-26T08:44:22;3.38;;;1.00;;
41799;SDS011;27468;47.460;19.034;2023-04-26T08:49:40;1.85;;;1.27;;
41799;SDS011;27468;47.460;19.034;2023-04-26T08:52:07;4.68;;;1.33;;
41799;SDS011;27468;47.460;19.034;2023-04-26T08:54:36;4.25;;;1.23;;
41799;SDS011;27468;47.460;19.034;2023-04-26T08:57:02;2.30;;;1.35;;
41799;SDS011;27468;47.460;19.034;2023-04-26T08:59:31;2.80;;;1.02;;
41799;SDS011;27468;47.460;19.034;2023-04-26T09:01:58;2.38;;;1.08;;
41799;SDS011;27468;47.460;19.034;2023-04-26T09:04:26;2.80;;;1.13;;
41799;SDS011;27468;47.460;19.034;2023-04-26T09:06:52;1.38;;;1.00;;
41799;SDS011;27468;47.460;19.034;2023-04-26T09:09:23;2.03;;;0.90;;
41799;SDS011;27468;47.460;19.034;2023-04-26T09:11:52;4.90;;;1.73;;
41799;SDS011;27468;47.460;19.034;2023-04-26T09:14:21;3.95;;;1.35;;
41799;SDS011;27468;47.460;19.034;2023-04-26T09:16:47;2.20;;;0.90;;
41799;SDS011;27468;47.460;19.034;2023-04-26T09:19:13;3.42;;;1.63;;
41799;SDS011;27468;47.460;19.034;2023-04-26T09:21:42;1.55;;;1.00;;
41799;SDS011;27468;47.460;19.034;2023-04-26T09:24:09;2.38;;;1.58;;
41799;SDS011;27468;47.460;19.034;2023-04-26T09:26:35;2.85;;;1.17;;
41799;SDS011;27468;47.460;19.034;2023-04-26T09:31:41;1.50;;;0.95;;
41799;SDS011;27468;47.460;19.034;2023-04-26T09:34:11;1.65;;;1.25;;
41799;SDS011;27468;47.460;19.034;2023-04-26T09:36:55;2.25;;;0.90;;
41799;SDS011;27468;47.460;19.034;2023-04-26T09:39:34;1.88;;;1.25;;
41799;SDS011;27468;47.460;19.034;2023-04-26T09:42:10;1.73;;;1.10;;
41799;SDS011;27468;47.460;19.034;2023-04-26T09:44:36;1.95;;;1.08;;
41799;SDS011;27468;47.460;19.034;2023-04-26T09:47:05;4.07;;;1.60;;
41799;SDS011;27468;47.460;19.034;2023-04-26T09:49:48;2.17;;;1.10;;
41799;SDS011;27468;47.460;19.034;2023-04-26T09:52:16;1.95;;;0.85;;
41799;SDS011;27468;47.460;19.034;2023-04-26T09:54:46;1.85;;;0.85;;
41799;SDS011;27468;47.460;19.034;2023-04-26T09:57:14;1.85;;;1.17;;
41799;SDS011;27468;47.460;19.034;2023-04-26T09:59:59;1.63;;;0.90;;
41799;SDS011;27468;47.460;19.034;2023-04-26T10:02:32;3.20;;;0.63;;
41799;SDS011;27468;47.460;19.034;2023-04-26T10:04:58;1.27;;;0.90;;
41799;SDS011;27468;47.460;19.034;2023-04-26T10:07:25;2.53;;;1.42;;
41799;SDS011;27468;47.460;19.034;2023-04-26T10:09:51;1.88;;;0.88;;
41799;SDS011;27468;47.460;19.034;2023-04-26T10:12:18;1.55;;;0.80;;
41799;SDS011;27468;47.460;19.034;2023-04-26T10:14:47;2.13;;;0.93;;
41799;SDS011;27468;47.460;19.034;2023-04-26T10:17:13;1.75;;;0.95;;
41799;SDS011;27468;47.460;19.034;2023-04-26T10:19:39;1.60;;;1.08;;
41799;SDS011;27468;47.460;19.034;2023-04-26T10:22:20;0.80;;;0.80;;
41799;SDS011;27468;47.460;19.034;2023-04-26T10:24:47;2.05;;;0.93;;
41799;SDS011;27468;47.460;19.034;2023-04-26T10:27:14;0.77;;;0.63;;
41799;SDS011;27468;47.460;19.034;2023-04-26T10:32:21;0.75;;;0.75;;
41799;SDS011;27468;47.460;19.034;2023-04-26T10:45:34;0.90;;;0.80;;
41799;SDS011;27468;47.460;19.034;2023-04-26T10:48:46;1.05;;;0.70;;
41799;SDS011;27468;47.460;19.034;2023-04-26T10:53:23;2.38;;;0.75;;
41799;SDS011;27468;47.460;19.034;2023-04-26T10:55:49;2.45;;;1.60;;
41799;SDS011;27468;47.460;19.034;2023-04-26T10:58:25;1.80;;;1.55;;
41799;SDS011;27468;47.460;19.034;2023-04-26T11:01:04;2.13;;;0.77;;
41799;SDS011;27468;47.460;19.034;2023-04-26T11:03:37;1.95;;;0.75;;
41799;SDS011;27468;47.460;19.034;2023-04-26T11:06:05;1.75;;;0.80;;
41799;SDS011;27468;47.460;19.034;2023-04-26T11:08:31;2.47;;;0.80;;
41799;SDS011;27468;47.460;19.034;2023-04-26T11:13:26;1.48;;;0.85;;
41799;SDS011;27468;47.460;19.034;2023-04-26T11:16:05;0.90;;;0.60;;
41799;SDS011;27468;47.460;19.034;2023-04-26T11:18:41;1.30;;;0.70;;
41799;SDS011;27468;47.460;19.034;2023-04-26T11:21:11;1.95;;;0.80;;
41799;SDS011;27468;47.460;19.034;2023-04-26T11:23:41;1.00;;;0.80;;
41799;SDS011;27468;47.460;19.034;2023-04-26T11:26:07;1.35;;;0.80;;
41799;SDS011;27468;47.460;19.034;2023-04-26T11:28:37;2.00;;;0.95;;
41799;SDS011;27468;47.460;19.034;2023-04-26T11:31:04;1.00;;;0.80;;
41799;SDS011;27468;47.460;19.034;2023-04-26T11:33:31;0.68;;;0.60;;
41799;SDS011;27468;47.460;19.034;2023-04-26T11:35:58;1.25;;;0.88;;
41799;SDS011;27468;47.460;19.034;2023-04-26T11:38:26;1.63;;;1.33;;
41799;SDS011;27468;47.460;19.034;2023-04-26T11:40:59;1.08;;;1.00;;
41799;SDS011;27468;47.460;19.034;2023-04-26T11:43:36;2.17;;;1.10;;
41799;SDS011;27468;47.460;19.034;2023-04-26T11:46:03;0.98;;;0.80;;
41799;SDS011;27468;47.460;19.034;2023-04-26T11:48:30;2.47;;;0.85;;
41799;SDS011;27468;47.460;19.034;2023-04-26T11:50:57;1.33;;;0.80;;
41799;SDS011;27468;47.460;19.034;2023-04-26T11:53:23;1.08;;;0.68;;
41799;SDS011;27468;47.460;19.034;2023-04-26T11:55:49;1.35;;;0.80;;
41799;SDS011;27468;47.460;19.034;2023-04-26T11:58:16;1.85;;;1.00;;
41799;SDS011;27468;47.460;19.034;2023-04-26T12:01:18;1.08;;;0.47;;
41799;SDS011;27468;47.460;19.034;2023-04-26T12:03:33;1.90;;;0.88;;
41799;SDS011;27468;47.460;19.034;2023-04-26T12:06:01;1.00;;;0.80;;
41799;SDS011;27468;47.460;19.034;2023-04-26T12:08:27;1.08;;;0.80;;
41799;SDS011;27468;47.460;19.034;2023-04-26T12:10:57;2.35;;;1.00;;
41799;SDS011;27468;47.460;19.034;2023-04-26T12:13:23;0.70;;;0.60;;
41799;SDS011;27468;47.460;19.034;2023-04-26T12:15:49;2.60;;;0.90;;
41799;SDS011;27468;47.460;19.034;2023-04-26T12:18:16;1.58;;;0.93;;
41799;SDS011;27468;47.460;19.034;2023-04-26T12:20:42;1.90;;;0.60;;
41799;SDS011;27468;47.460;19.034;2023-04-26T12:23:14;1.63;;;0.80;;
41799;SDS011;27468;47.460;19.034;2023-04-26T12:25:41;1.88;;;0.70;;
41799;SDS011;27468;47.460;19.034;2023-04-26T12:28:16;1.25;;;0.60;;
41799;SDS011;27468;47.460;19.034;2023-04-26T12:30:41;1.55;;;0.90;;
41799;SDS011;27468;47.460;19.034;2023-04-26T12:33:07;1.10;;;0.70;;
41799;SDS011;27468;47.460;19.034;2023-04-26T12:35:32;1.45;;;0.90;;
41799;SDS011;27468;47.460;19.034;2023-04-26T12:37:59;1.75;;;1.00;;
41799;SDS011;27468;47.460;19.034;2023-04-26T12:40:25;1.77;;;0.70;;
41799;SDS011;27468;47.460;19.034;2023-04-26T12:42:53;1.45;;;0.68;;
41799;SDS011;27468;47.460;19.034;2023-04-26T12:45:20;2.15;;;0.70;;
41799;SDS011;27468;47.460;19.034;2023-04-26T12:47:47;1.55;;;0.60;;
41799;SDS011;27468;47.460;19.034;2023-04-26T12:50:13;0.85;;;0.55;;
41799;SDS011;27468;47.460;19.034;2023-04-26T12:52:40;0.70;;;0.70;;
41799;SDS011;27468;47.460;19.034;2023-04-26T12:55:07;1.48;;;0.50;;
41799;SDS011;27468;47.460;19.034;2023-04-26T12:57:35;1.02;;;0.93;;
41799;SDS011;27468;47.460;19.034;2023-04-26T13:00:01;4.13;;;1.02;;
41799;SDS011;27468;47.460;19.034;2023-04-26T13:02:28;0.77;;;0.60;;
41799;SDS011;27468;47.460;19.034;2023-04-26T13:04:54;1.73;;;0.80;;
41799;SDS011;27468;47.460;19.034;2023-04-26T13:07:20;1.33;;;0.63;;
41799;SDS011;27468;47.460;19.034;2023-04-26T13:09:46;1.55;;;0.98;;
41799;SDS011;27468;47.460;19.034;2023-04-26T13:12:11;1.88;;;0.88;;
41799;SDS011;27468;47.460;19.034;2023-04-26T13:14:38;2.17;;;0.90;;
41799;SDS011;27468;47.460;19.034;2023-04-26T13:17:03;1.35;;;0.80;;
41799;SDS011;27468;47.460;19.034;2023-04-26T13:19:30;1.20;;;0.50;;
41799;SDS011;27468;47.460;19.034;2023-04-26T13:21:55;1.55;;;0.70;;
41799;SDS011;27468;47.460;19.034;2023-04-26T13:24:20;1.42;;;0.70;;
41799;SDS011;27468;47.460;19.034;2023-04-26T13:26:46;5.03;;;0.90;;
41799;SDS011;27468;47.460;19.034;2023-04-26T13:29:12;0.88;;;0.63;;
41799;SDS011;27468;47.460;19.034;2023-04-26T13:31:37;1.88;;;1.08;;
41799;SDS011;27468;47.460;19.034;2023-04-26T13:34:03;2.55;;;0.93;;
41799;SDS011;27468;47.460;19.034;2023-04-26T13:36:29;1.63;;;0.50;;
41799;SDS011;27468;47.460;19.034;2023-04-26T13:38:56;0.60;;;0.50;;
41799;SDS011;27468;47.460;19.034;2023-04-26T13:41:21;0.70;;;0.52;;
41799;SDS011;27468;47.460;19.034;2023-04-26T13:43:47;1.35;;;0.70;;
41799;SDS011;27468;47.460;19.034;2023-04-26T13:46:13;1.33;;;0.50;;
41799;SDS011;27468;47.460;19.034;2023-04-26T13:48:39;0.68;;;0.63;;
41799;SDS011;27468;47.460;19.034;2023-04-26T13:51:05;1.02;;;0.77;;
41799;SDS011;27468;47.460;19.034;2023-04-26T13:53:30;1.23;;;0.80;;
41799;SDS011;27468;47.460;19.034;2023-04-26T13:55:56;0.55;;;0.55;;
41799;SDS011;27468;47.460;19.034;2023-04-26T13:58:22;0.73;;;0.68;;
41799;SDS011;27468;47.460;19.034;2023-04-26T14:00:48;1.30;;;0.70;;
41799;SDS011;27468;47.460;19.034;2023-04-26T14:03:14;1.35;;;0.80;;
41799;SDS011;27468;47.460;19.034;2023-04-26T14:05:39;1.17;;;0.60;;
41799;SDS011;27468;47.460;19.034;2023-04-26T14:08:05;1.90;;;0.50;;
41799;SDS011;27468;47.460;19.034;2023-04-26T14:10:32;1.13;;;0.50;;
41799;SDS011;27468;47.460;19.034;2023-04-26T14:12:57;2.50;;;0.85;;
41799;SDS011;27468;47.460;19.034;2023-04-26T14:15:23;1.45;;;0.80;;
41799;SDS011;27468;47.460;19.034;2023-04-26T14:17:48;0.90;;;0.70;;
41799;SDS011;27468;47.460;19.034;2023-04-26T14:20:14;1.02;;;0.50;;
41799;SDS011;27468;47.460;19.034;2023-04-26T14:22:40;1.45;;;0.73;;
41799;SDS011;27468;47.460;19.034;2023-04-26T14:25:05;2.25;;;0.80;;
41799;SDS011;27468;47.460;19.034;2023-04-26T14:27:31;0.88;;;0.50;;
41799;SDS011;27468;47.460;19.034;2023-04-26T14:29:56;0.80;;;0.70;;
41799;SDS011;27468;47.460;19.034;2023-04-26T14:32:22;0.50;;;0.50;;
41799;SDS011;27468;47.460;19.034;2023-04-26T14:34:47;1.88;;;1.13;;
41799;SDS011;27468;47.460;19.034;2023-04-26T14:37:12;0.82;;;0.52;;
41799;SDS011;27468;47.460;19.034;2023-04-26T14:39:39;0.88;;;0.60;;
41799;SDS011;27468;47.460;19.034;2023-04-26T14:42:04;0.65;;;0.57;;
41799;SDS011;27468;47.460;19.034;2023-04-26T14:44:30;1.13;;;0.90;;
41799;SDS011;27468;47.460;19.034;2023-04-26T14:46:56;0.60;;;0.60;;
41799;SDS011;27468;47.460;19.034;2023-04-26T14:49:21;1.67;;;0.50;;
41799;SDS011;27468;47.460;19.034;2023-04-26T14:51:47;0.68;;;0.60;;
41799;SDS011;27468;47.460;19.034;2023-04-26T14:54:12;1.23;;;0.80;;